Artesia, MS

12:05 AM CST on December 29, 2014 (GMT -0600)
Bryan | Change Station
CLOSE
Current Station
Airport
Location: Starkville,
Elevation: 331 ft
Nearby Weather Stations
Active Advisory: Flood Warning

Elev 331 ft 33.43 °N, 88.85 °W | Updated 10 minutes ago

Rain
Rain
43 °F
Feels Like 41 °F
N
4
Wind Variable Wind from NNE

Today
High -- | Low -- °F
--% Chance of Precip.
Yesterday
High -- | Low -- °F
Precip. -- in
6:57 AM 4:55 PM
First Quarter, 55% visible
Pressure 30.12 in
Visibility 10.0 miles
Clouds Mostly Cloudy 500 ft
Mostly Cloudy 3200 ft
Overcast 7000 ft
Windchill 41 °F
Dew Point 43 °F
Humidity 100%
Rainfall 0.99 in
Snow Depth Not available.
UV 0 out of 12
Pollen .30 out of 12
Air Quality Not available.
Flu Activity Not available.
METAR KSTF 290555Z AUTO 02003KT 10SM -RA BKN005 BKN032 OVC070 06/06 A3012 RMK AO2 P0004

More Conditions Fewer Conditions

Pressure 30.12 in
Visibility 10.0 miles
Clouds Mostly Cloudy 500 ft
Mostly Cloudy 3200 ft
Overcast 7000 ft
Windchill 41 °F
Dew Point 43 °F
Humidity 100%
Rainfall 0.99 in
Snow Depth Not available.
UV 0 out of 12
Pollen .30 out of 12
Air Quality Not available.
Flu Activity Not available.
METAR KSTF 290555Z AUTO 02003KT 10SM -RA BKN005 BKN032 OVC070 06/06 A3012 RMK AO2 P0004

More Conditions Fewer Conditions

10-Day Weather Forecast

Almanac

Astronomy

Dec. 29, 2014 Rise Set
Actual Time
Civil Twilight
Nautical Twilight
Astronomical Twilight
Moon
Length of Visible Light
Length of Day
Tomorrow will be .
, % of the Moon is Illuminated

Today's Extremes

State Highs State Lows

Community

WunderPhotos

Upload Photos

1,781,544 photos uploaded!

WunderBlogs® & News

Nearby

Air Quality

  Air Quality AQ Index Pollutant
Not available.

Snow Depth

Station Depth Elevation

Earthquake Activity

City Distance Mag. Time & Date
Minimum magnitude displayed is 2.5.

Coastal Water Temperatures

Place Temperature

Nearby Weather Stations